Time;durP1;ratioP1;P1;durP2;ratioP2;P2;SDS_P1;SDS_P2;PMS_P1;PMS_P2;Temp;Humidity;BMP_temperature;BMP_pressure;BME280_temperature;BME280_humidity;BME280_pressure;Samples;Min_cycle;Max_cycle;Signal;HPM_P1;HPM_P2
2021/04/26 00:01:53;;;;;;;4.08;1.62;;;7.50;99.90;;;;;;1954539;73;21093;-77
2021/04/26 00:04:19;;;;;;;9.68;1.55;;;7.30;99.90;;;;;;1956108;73;21056;-77
2021/04/26 00:06:45;;;;;;;2.05;1.10;;;7.20;99.90;;;;;;1956483;73;21037;-77
2021/04/26 00:09:12;;;;;;;3.87;1.25;;;7.20;99.90;;;;;;1956468;73;21130;-77
2021/04/26 00:11:38;;;;;;;1.50;0.95;;;7.20;99.90;;;;;;1956348;73;21032;-77
2021/04/26 00:14:04;;;;;;;5.42;1.72;;;7.30;99.90;;;;;;1956473;73;21168;-77
2021/04/26 00:16:30;;;;;;;3.10;1.00;;;7.30;99.90;;;;;;1956593;73;21055;-77
2021/04/26 00:18:56;;;;;;;2.25;0.90;;;7.30;99.90;;;;;;1956133;73;21088;-77
2021/04/26 00:21:22;;;;;;;3.70;1.40;;;7.50;99.90;;;;;;1956371;73;21033;-77
2021/04/26 00:23:48;;;;;;;6.33;1.40;;;7.40;99.90;;;;;;1956257;73;21067;-77
2021/04/26 00:26:14;;;;;;;3.52;1.52;;;7.40;99.90;;;;;;1956294;73;21451;-76
2021/04/26 00:28:41;;;;;;;2.35;1.52;;;7.40;99.90;;;;;;1956262;73;21645;-77
2021/04/26 00:31:07;;;;;;;5.33;1.55;;;7.40;99.90;;;;;;1956218;73;21504;-77
2021/04/26 00:33:33;;;;;;;2.50;1.10;;;7.30;99.90;;;;;;1956235;73;21085;-77
2021/04/26 00:35:59;;;;;;;2.72;1.30;;;7.30;99.90;;;;;;1956257;73;21064;-77
2021/04/26 00:38:25;;;;;;;2.02;1.45;;;7.20;99.90;;;;;;1956231;73;21064;-77
2021/04/26 00:40:51;;;;;;;1.62;1.25;;;7.10;99.90;;;;;;1956338;73;21169;-77
2021/04/26 00:43:17;;;;;;;4.83;1.50;;;7.10;99.90;;;;;;1956154;73;21162;-77
2021/04/26 00:45:43;;;;;;;4.10;1.30;;;7.10;99.90;;;;;;1956481;73;21130;-77
2021/04/26 00:48:09;;;;;;;10.68;1.55;;;7.10;99.90;;;;;;1956569;73;21037;-77
2021/04/26 00:50:36;;;;;;;2.80;1.27;;;7.00;99.90;;;;;;1956448;73;21063;-77
2021/04/26 00:53:02;;;;;;;6.75;1.42;;;7.00;99.90;;;;;;1956300;73;21068;-77
2021/04/26 00:55:28;;;;;;;1.87;1.37;;;6.80;99.90;;;;;;1956445;73;21131;-77
2021/04/26 00:57:54;;;;;;;6.87;1.32;;;6.80;99.90;;;;;;1956212;73;21068;-77
2021/04/26 01:00:23;;;;;;;1.82;1.47;;;6.80;99.90;;;;;;1956125;73;21093;-77
2021/04/26 01:02:48;;;;;;;2.72;1.37;;;6.70;99.90;;;;;;1955809;72;21093;-78
2021/04/26 01:05:14;;;;;;;6.33;1.95;;;6.70;99.90;;;;;;1956448;73;21064;-77
2021/04/26 01:07:40;;;;;;;1.75;1.35;;;6.60;99.90;;;;;;1956348;73;21056;-77
2021/04/26 01:10:06;;;;;;;1.62;1.10;;;6.60;99.90;;;;;;1956207;73;21065;-77
2021/04/26 01:12:33;;;;;;;2.02;1.15;;;6.40;99.90;;;;;;1956213;73;21096;-77
2021/04/26 01:14:59;;;;;;;3.50;1.77;;;6.40;99.90;;;;;;1956238;73;21085;-77
2021/04/26 01:17:25;;;;;;;3.77;1.65;;;6.30;99.90;;;;;;1956316;73;21057;-77
2021/04/26 01:19:51;;;;;;;2.95;1.72;;;6.30;99.90;;;;;;1956342;73;21107;-77
2021/04/26 01:22:17;;;;;;;3.27;1.50;;;6.30;99.90;;;;;;1956211;73;21085;-77
2021/04/26 01:24:43;;;;;;;2.75;1.37;;;6.30;99.90;;;;;;1956206;73;21080;-77
2021/04/26 01:27:10;;;;;;;2.20;1.55;;;6.30;99.90;;;;;;1956220;73;21100;-77
2021/04/26 01:29:36;;;;;;;5.15;1.87;;;6.30;99.90;;;;;;1956349;73;21067;-77
2021/04/26 01:32:07;;;;;;;4.28;1.50;;;6.30;99.90;;;;;;1956180;73;21520;-77
2021/04/26 01:34:33;;;;;;;2.62;1.62;;;6.30;99.90;;;;;;1956235;73;21175;-76
2021/04/26 01:36:59;;;;;;;3.10;2.00;;;6.30;99.90;;;;;;1956316;73;21138;-77
2021/04/26 01:39:25;;;;;;;3.27;1.57;;;6.20;99.90;;;;;;1956058;73;21112;-77
2021/04/26 01:41:52;;;;;;;4.55;1.27;;;6.40;99.90;;;;;;1956455;73;21137;-77
2021/04/26 01:44:18;;;;;;;4.87;1.70;;;6.50;99.90;;;;;;1956110;73;21061;-78
2021/04/26 01:46:44;;;;;;;5.15;1.70;;;6.40;99.90;;;;;;1956266;73;21088;-77
2021/04/26 01:49:10;;;;;;;1.80;1.52;;;6.20;99.90;;;;;;1956060;73;21167;-77
2021/04/26 01:51:36;;;;;;;2.72;1.60;;;6.20;99.90;;;;;;1955694;73;21072;-77
2021/04/26 01:54:02;;;;;;;2.27;1.72;;;6.20;99.90;;;;;;1955527;73;21167;-77
2021/04/26 01:56:28;;;;;;;4.95;2.20;;;6.10;99.90;;;;;;1956236;73;21081;-77
2021/04/26 01:58:54;;;;;;;3.22;2.12;;;6.20;99.90;;;;;;1954748;73;21146;-77
2021/04/26 02:01:20;;;;;;;5.80;2.08;;;6.10;99.90;;;;;;1956197;73;21087;-77
2021/04/26 02:03:47;;;;;;;1.95;1.55;;;6.10;99.90;;;;;;1956286;73;21109;-78
2021/04/26 02:06:13;;;;;;;4.72;2.10;;;6.00;99.90;;;;;;1956288;73;21162;-78
2021/04/26 02:08:39;;;;;;;4.40;2.12;;;5.90;99.90;;;;;;1929968;73;21133;-78
2021/04/26 02:11:05;;;;;;;2.33;1.60;;;6.00;99.90;;;;;;1955846;73;21076;-77
2021/04/26 02:13:31;;;;;;;5.12;2.70;;;6.00;99.90;;;;;;1953208;73;21572;-78
2021/04/26 02:15:57;;;;;;;4.30;1.95;;;6.00;99.90;;;;;;1954091;73;21546;-77
2021/04/26 02:18:23;;;;;;;3.62;1.85;;;5.90;99.90;;;;;;1956157;73;21543;-78
2021/04/26 02:20:49;;;;;;;3.50;1.98;;;5.80;99.90;;;;;;1956234;73;21479;-78
2021/04/26 02:23:16;;;;;;;6.83;2.17;;;5.70;99.90;;;;;;1956169;73;21166;-78
2021/04/26 02:25:42;;;;;;;7.12;2.33;;;5.60;99.90;;;;;;1956271;73;21099;-78
2021/04/26 02:28:08;;;;;;;4.60;2.12;;;5.60;99.90;;;;;;1956307;73;21061;-76
2021/04/26 02:30:34;;;;;;;10.78;2.47;;;5.50;99.90;;;;;;1956110;73;21096;-77
2021/04/26 02:33:00;;;;;;;5.12;2.27;;;5.50;99.90;;;;;;1956271;73;21142;-77
2021/04/26 02:35:26;;;;;;;8.80;2.47;;;5.50;99.90;;;;;;1956077;73;21100;-76
2021/04/26 02:37:55;;;;;;;4.45;2.27;;;5.40;99.90;;;;;;1956129;73;21170;-77
2021/04/26 02:40:22;;;;;;;4.30;1.85;;;5.40;99.90;;;;;;1955948;72;21088;-76
2021/04/26 02:42:48;;;;;;;4.60;2.50;;;5.30;99.90;;;;;;1956126;73;21546;-76
2021/04/26 02:45:14;;;;;;;11.63;2.37;;;5.30;99.90;;;;;;1956207;73;21104;-76
2021/04/26 02:47:40;;;;;;;1.92;1.75;;;5.30;99.90;;;;;;1956200;73;21081;-77
2021/04/26 02:50:06;;;;;;;2.77;2.25;;;5.30;99.90;;;;;;1956183;73;21093;-76
2021/04/26 02:52:33;;;;;;;2.98;1.98;;;5.20;99.90;;;;;;1956147;73;21097;-77
2021/04/26 02:54:59;;;;;;;2.72;2.05;;;5.10;99.90;;;;;;1956184;73;21089;-77
2021/04/26 02:57:25;;;;;;;5.37;2.50;;;5.20;99.90;;;;;;1956242;73;21071;-76
2021/04/26 02:59:51;;;;;;;4.10;2.10;;;5.20;99.90;;;;;;1956093;73;21167;-76
2021/04/26 03:02:17;;;;;;;3.52;2.00;;;5.30;99.90;;;;;;1956389;73;21048;-76
2021/04/26 03:04:43;;;;;;;4.35;2.42;;;5.20;99.90;;;;;;1956322;73;21409;-77
2021/04/26 03:07:09;;;;;;;3.10;2.10;;;5.20;99.90;;;;;;1956402;73;21468;-77
2021/04/26 03:09:35;;;;;;;4.85;2.10;;;5.20;99.90;;;;;;1956276;73;21562;-76
2021/04/26 03:12:01;;;;;;;3.45;2.05;;;5.30;99.90;;;;;;1956288;73;21107;-76
2021/04/26 03:14:29;;;;;;;5.85;2.02;;;5.20;99.90;;;;;;1956281;73;21097;-76
2021/04/26 03:16:55;;;;;;;6.22;2.37;;;5.20;99.90;;;;;;1956244;73;21075;-76
2021/04/26 03:19:21;;;;;;;2.70;2.27;;;5.00;99.90;;;;;;1956225;73;21621;-77
2021/04/26 03:21:47;;;;;;;2.35;1.85;;;5.00;99.90;;;;;;1956364;73;21398;-77
2021/04/26 03:24:13;;;;;;;3.33;2.08;;;5.00;99.90;;;;;;1956257;73;21543;-77
2021/04/26 03:26:39;;;;;;;3.02;2.05;;;4.90;99.90;;;;;;1956211;73;21068;-77
2021/04/26 03:29:06;;;;;;;2.45;2.12;;;4.90;99.90;;;;;;1956243;73;21067;-77
2021/04/26 03:31:32;;;;;;;3.10;2.50;;;5.00;99.90;;;;;;1956374;73;21111;-77
2021/04/26 03:33:58;;;;;;;4.05;2.37;;;5.00;99.90;;;;;;1956230;73;21100;-77
2021/04/26 03:36:24;;;;;;;4.10;2.37;;;5.00;99.90;;;;;;1956227;73;21076;-76
2021/04/26 03:38:51;;;;;;;7.90;2.70;;;4.90;99.90;;;;;;1956207;73;21076;-77
2021/04/26 03:41:18;;;;;;;4.65;2.17;;;4.90;99.90;;;;;;1956285;73;21045;-77
2021/04/26 03:43:44;;;;;;;3.02;1.67;;;4.80;99.90;;;;;;1956271;73;21098;-76
2021/04/26 03:46:10;;;;;;;7.17;2.85;;;4.70;99.90;;;;;;1956269;73;21064;-76
2021/04/26 03:48:36;;;;;;;1.80;1.70;;;4.70;99.90;;;;;;1956244;73;21108;-76
2021/04/26 03:51:02;;;;;;;6.70;2.00;;;4.60;99.90;;;;;;1956448;73;21499;-77
2021/04/26 03:53:28;;;;;;;9.60;2.42;;;4.60;99.90;;;;;;1956338;73;21550;-77
2021/04/26 03:55:54;;;;;;;2.90;2.02;;;4.40;99.90;;;;;;1956363;73;21483;-77
2021/04/26 03:58:20;;;;;;;16.32;2.60;;;4.40;99.90;;;;;;1956108;73;21104;-77
2021/04/26 04:00:47;;;;;;;6.03;2.00;;;4.50;99.90;;;;;;1956352;73;21040;-78
2021/04/26 04:03:17;;;;;;;3.90;2.02;;;4.60;99.90;;;;;;1956131;73;21192;-76
2021/04/26 04:05:42;;;;;;;4.60;2.45;;;4.60;99.90;;;;;;1954992;73;21493;-77
2021/04/26 04:08:08;;;;;;;13.13;2.30;;;4.50;99.90;;;;;;1956088;73;21101;-77
2021/04/26 04:10:34;;;;;;;9.75;1.98;;;4.50;99.90;;;;;;1956346;73;21064;-76
2021/04/26 04:13:00;;;;;;;4.97;2.35;;;4.40;99.90;;;;;;1955516;73;21116;-76
2021/04/26 04:15:26;;;;;;;3.33;1.92;;;4.30;99.90;;;;;;1955847;73;21573;-76
2021/04/26 04:17:53;;;;;;;3.42;1.85;;;4.30;99.90;;;;;;1954732;73;21433;-75
2021/04/26 04:20:19;;;;;;;5.17;2.70;;;4.20;99.90;;;;;;1955710;73;21092;-75
2021/04/26 04:22:45;;;;;;;5.53;2.30;;;4.20;99.90;;;;;;1955611;73;21049;-75
2021/04/26 04:25:11;;;;;;;7.62;2.42;;;4.20;99.90;;;;;;1955722;73;21056;-75
2021/04/26 04:27:37;;;;;;;4.70;2.00;;;4.10;99.90;;;;;;1956329;73;21060;-75
2021/04/26 04:30:03;;;;;;;2.83;2.10;;;4.10;99.90;;;;;;1955680;73;21076;-75
2021/04/26 04:32:29;;;;;;;2.12;1.57;;;4.10;99.90;;;;;;1956239;73;21064;-75
2021/04/26 04:34:55;;;;;;;3.85;1.92;;;4.10;99.90;;;;;;1956229;73;21105;-75
2021/04/26 04:37:21;;;;;;;3.15;2.02;;;4.10;99.90;;;;;;1956246;73;21141;-75
2021/04/26 04:39:48;;;;;;;3.12;1.92;;;4.10;99.90;;;;;;1956316;73;21472;-75
2021/04/26 04:42:14;;;;;;;4.17;1.90;;;4.20;99.90;;;;;;1956347;73;21397;-75
2021/04/26 04:44:40;;;;;;;4.72;2.05;;;4.30;99.90;;;;;;1956107;73;21094;-75
2021/04/26 04:47:06;;;;;;;1.42;1.30;;;4.40;99.90;;;;;;1956339;73;21145;-75
2021/04/26 04:49:32;;;;;;;2.30;1.98;;;4.40;99.90;;;;;;1956466;73;21140;-76
2021/04/26 04:51:58;;;;;;;1.52;1.42;;;4.50;99.90;;;;;;1956400;73;21064;-74
2021/04/26 04:54:24;;;;;;;2.50;1.75;;;4.50;99.90;;;;;;1956296;73;21093;-75
2021/04/26 04:56:50;;;;;;;4.03;2.00;;;4.50;99.90;;;;;;1956500;73;21060;-76
2021/04/26 04:59:17;;;;;;;5.42;2.17;;;4.60;99.90;;;;;;1956402;73;21044;-76
2021/04/26 05:01:43;;;;;;;7.83;2.25;;;4.70;99.90;;;;;;1956093;73;21477;-76
2021/04/26 05:04:09;;;;;;;7.60;2.40;;;4.70;99.90;;;;;;1956400;73;21417;-76
2021/04/26 05:06:35;;;;;;;4.35;1.87;;;4.80;99.90;;;;;;1956041;73;21525;-76
2021/04/26 05:09:01;;;;;;;3.92;2.58;;;4.80;99.90;;;;;;1956303;73;21151;-76
2021/04/26 05:11:27;;;;;;;2.33;1.40;;;4.90;99.90;;;;;;1956084;73;21084;-77
2021/04/26 05:13:53;;;;;;;2.42;2.00;;;5.00;99.90;;;;;;1956322;73;21056;-76
2021/04/26 05:16:19;;;;;;;4.17;2.12;;;5.00;99.90;;;;;;1956078;73;21088;-74
2021/04/26 05:18:46;;;;;;;2.10;1.82;;;5.10;99.90;;;;;;1956254;73;21060;-75
2021/04/26 05:21:12;;;;;;;2.27;1.98;;;5.10;99.90;;;;;;1956151;73;21073;-75
2021/04/26 05:23:38;;;;;;;3.85;2.58;;;5.30;99.90;;;;;;1956214;73;21098;-75
2021/04/26 05:26:04;;;;;;;5.37;2.17;;;5.30;99.90;;;;;;1956316;73;21056;-76
2021/04/26 05:28:30;;;;;;;3.47;1.85;;;5.30;99.90;;;;;;1956310;73;21060;-75
2021/04/26 05:30:56;;;;;;;7.33;1.98;;;5.20;99.90;;;;;;1956095;73;21093;-76
2021/04/26 05:33:22;;;;;;;2.35;2.00;;;5.30;99.90;;;;;;1956280;73;21111;-75
2021/04/26 05:35:48;;;;;;;2.85;1.72;;;5.40;99.90;;;;;;1955997;73;21076;-75
2021/04/26 05:38:14;;;;;;;4.47;1.82;;;5.50;99.90;;;;;;1956306;73;21067;-77
2021/04/26 05:40:41;;;;;;;4.60;2.33;;;5.70;99.90;;;;;;1956184;73;21549;-77
2021/04/26 05:43:10;;;;;;;3.92;1.75;;;5.70;99.90;;;;;;1956180;73;21032;-77
2021/04/26 05:45:36;;;;;;;7.55;1.60;;;5.90;99.90;;;;;;1956169;73;21085;-78
2021/04/26 05:48:02;;;;;;;3.15;1.75;;;5.90;99.90;;;;;;1956287;73;21107;-75
2021/04/26 05:50:28;;;;;;;2.30;1.50;;;5.90;99.90;;;;;;1956253;73;21060;-78
2021/04/26 05:52:55;;;;;;;2.52;1.92;;;6.00;99.90;;;;;;1956253;73;21056;-75
2021/04/26 05:55:21;;;;;;;3.05;1.92;;;6.00;99.90;;;;;;1956106;73;21537;-76
2021/04/26 05:57:47;;;;;;;2.58;1.72;;;6.10;99.90;;;;;;1956253;73;21064;-76
2021/04/26 06:00:14;;;;;;;1.92;1.60;;;6.20;99.90;;;;;;1956158;73;21141;-76
2021/04/26 06:02:40;;;;;;;3.65;1.55;;;6.40;99.90;;;;;;1956222;73;21029;-76
2021/04/26 06:05:06;;;;;;;2.50;1.47;;;6.60;99.90;;;;;;1956131;73;21135;-76
2021/04/26 06:07:32;;;;;;;4.10;1.57;;;6.70;99.90;;;;;;1956101;73;21143;-75
2021/04/26 06:09:58;;;;;;;7.50;1.87;;;6.80;99.90;;;;;;1956128;73;21162;-77
2021/04/26 06:12:24;;;;;;;5.17;2.20;;;7.00;99.90;;;;;;1956043;73;21088;-77
2021/04/26 06:14:50;;;;;;;5.33;1.60;;;7.00;99.90;;;;;;1956112;73;21594;-75
2021/04/26 06:17:16;;;;;;;3.85;2.08;;;7.10;99.90;;;;;;1956217;73;21400;-75
2021/04/26 06:19:43;;;;;;;2.37;1.70;;;7.20;99.90;;;;;;1956109;73;21637;-75
2021/04/26 06:22:09;;;;;;;3.15;1.85;;;7.30;99.90;;;;;;1956127;73;21146;-75
2021/04/26 06:24:35;;;;;;;5.40;1.87;;;7.60;99.90;;;;;;1956035;73;21061;-76
2021/04/26 06:27:01;;;;;;;10.13;2.55;;;7.80;99.90;;;;;;1956136;73;21170;-76
2021/04/26 06:29:27;;;;;;;3.55;1.70;;;7.80;99.90;;;;;;1955978;73;21081;-79
2021/04/26 06:31:53;;;;;;;7.10;1.65;;;8.10;99.90;;;;;;1956201;73;21063;-80
2021/04/26 06:34:19;;;;;;;2.12;1.70;;;8.30;99.90;;;;;;1929995;73;21086;-77
2021/04/26 06:36:45;;;;;;;5.67;2.10;;;8.30;99.90;;;;;;1956364;73;21060;-74
2021/04/26 06:39:11;;;;;;;3.70;2.05;;;8.40;99.90;;;;;;1956321;73;21133;-82
2021/04/26 06:41:38;;;;;;;6.55;1.75;;;8.40;99.90;;;;;;1956265;73;21122;-83
2021/04/26 06:44:04;;;;;;;5.12;2.17;;;8.50;99.90;;;;;;1956363;73;21033;-82
2021/04/26 06:46:30;;;;;;;9.53;2.10;;;8.80;99.90;;;;;;1955596;73;21141;-81
2021/04/26 06:48:56;;;;;;;4.03;2.05;;;9.00;99.90;;;;;;1955584;73;21089;-79
2021/04/26 06:51:22;;;;;;;7.28;2.20;;;9.00;99.90;;;;;;1955974;73;21072;-80
2021/04/26 06:53:48;;;;;;;16.32;2.37;;;9.10;99.90;;;;;;1955274;73;21087;-79
2021/04/26 06:56:14;;;;;;;3.72;2.08;;;9.20;99.90;;;;;;1956191;73;21469;-80
2021/04/26 06:58:40;;;;;;;5.00;2.42;;;9.10;99.90;;;;;;1955416;73;21483;-79
2021/04/26 07:01:07;;;;;;;4.20;2.00;;;9.00;99.90;;;;;;1951969;72;21520;-81
2021/04/26 07:03:33;;;;;;;3.85;2.08;;;9.40;99.90;;;;;;1955561;73;21115;-80
2021/04/26 07:05:59;;;;;;;9.30;2.00;;;9.40;99.90;;;;;;1954341;73;21061;-80
2021/04/26 07:08:25;;;;;;;5.53;2.20;;;9.50;99.90;;;;;;1956047;73;21064;-83
2021/04/26 07:10:51;;;;;;;3.50;2.12;;;9.60;99.90;;;;;;1956081;73;21028;-82
2021/04/26 07:13:18;;;;;;;3.87;2.35;;;9.70;99.90;;;;;;1956277;73;21060;-78
2021/04/26 07:15:44;;;;;;;4.50;2.15;;;9.80;99.90;;;;;;1955987;73;21174;-77
2021/04/26 07:18:10;;;;;;;5.25;1.85;;;9.70;99.90;;;;;;1956860;72;21074;-77
2021/04/26 07:20:36;;;;;;;6.87;2.50;;;9.90;99.90;;;;;;1957687;73;21052;-77
2021/04/26 07:23:02;;;;;;;2.62;1.87;;;10.00;99.90;;;;;;1956180;73;21218;-79
2021/04/26 07:25:28;;;;;;;5.55;2.00;;;9.70;99.90;;;;;;1955984;73;21076;-79
2021/04/26 07:27:54;;;;;;;15.83;3.35;;;9.90;99.90;;;;;;1956119;73;21151;-78
2021/04/26 07:30:22;;;;;;;8.48;2.58;;;10.00;99.90;;;;;;1956178;73;21074;-78
2021/04/26 07:32:48;;;;;;;4.55;2.42;;;10.10;99.90;;;;;;1955995;73;21158;-78
2021/04/26 07:35:14;;;;;;;6.80;2.12;;;10.20;99.90;;;;;;1956156;73;21081;-77
2021/04/26 07:37:40;;;;;;;8.93;2.65;;;10.60;99.90;;;;;;1956028;73;21069;-78
2021/04/26 07:40:07;;;;;;;8.60;2.20;;;11.00;99.90;;;;;;1956092;73;21059;-78
2021/04/26 07:42:33;;;;;;;6.03;2.17;;;11.80;99.90;;;;;;1956067;73;21132;-79
2021/04/26 07:44:59;;;;;;;4.58;2.20;;;12.20;99.90;;;;;;1955987;73;21142;-78
2021/04/26 07:47:25;;;;;;;3.25;1.70;;;12.30;99.90;;;;;;1956307;73;21469;-78
2021/04/26 07:49:51;;;;;;;6.05;1.75;;;12.50;98.50;;;;;;1956449;73;21517;-78
2021/04/26 07:52:17;;;;;;;3.37;1.82;;;11.80;99.90;;;;;;1956385;73;21393;-78
2021/04/26 07:54:43;;;;;;;7.00;2.08;;;12.40;99.00;;;;;;1956051;73;21559;-78
2021/04/26 07:57:09;;;;;;;9.30;2.12;;;12.40;99.50;;;;;;1956103;73;21495;-78
2021/04/26 07:59:36;;;;;;;6.62;2.12;;;12.60;98.10;;;;;;1956281;73;21457;-79
2021/04/26 08:02:02;;;;;;;4.35;2.02;;;12.70;97.40;;;;;;1956249;73;21021;-77
2021/04/26 08:04:29;;;;;;;3.20;1.65;;;12.70;97.40;;;;;;1956346;73;21060;-79
2021/04/26 08:06:55;;;;;;;1.80;1.60;;;12.70;96.10;;;;;;1956294;73;21060;-81
2021/04/26 08:09:21;;;;;;;6.67;2.17;;;13.00;95.70;;;;;;1956169;73;21093;-79
2021/04/26 08:11:48;;;;;;;2.90;2.05;;;12.50;96.70;;;;;;1956156;73;21033;-79
2021/04/26 08:14:16;;;;;;;3.87;2.05;;;12.50;96.90;;;;;;1956180;73;21152;-78
2021/04/26 08:16:41;;;;;;;5.95;2.20;;;12.90;95.60;;;;;;1955973;73;21547;-77
2021/04/26 08:19:09;;;;;;;3.72;1.90;;;12.80;95.20;;;;;;1956070;73;21508;-77
2021/04/26 08:21:35;;;;;;;5.53;2.15;;;12.90;96.50;;;;;;1956341;73;21056;-77
2021/04/26 08:24:01;;;;;;;3.27;1.50;;;13.40;94.10;;;;;;1956455;73;21056;-77
2021/04/26 08:26:27;;;;;;;8.23;2.30;;;13.10;94.70;;;;;;1956460;73;21056;-77
2021/04/26 08:28:53;;;;;;;3.67;1.77;;;13.20;94.80;;;;;;1956349;73;21612;-77
2021/04/26 08:31:19;;;;;;;5.40;2.00;;;13.40;94.00;;;;;;1956171;73;21586;-78
2021/04/26 08:33:45;;;;;;;6.05;2.20;;;13.80;93.80;;;;;;1956178;73;21449;-78
2021/04/26 08:36:12;;;;;;;4.65;1.80;;;14.20;92.10;;;;;;1956177;73;21517;-77
2021/04/26 08:38:39;;;;;;;4.28;2.05;;;14.10;92.30;;;;;;1956145;73;21072;-77
2021/04/26 08:41:06;;;;;;;6.33;2.05;;;13.80;91.60;;;;;;1956188;73;21605;-76
2021/04/26 08:43:32;;;;;;;4.22;1.80;;;13.60;92.30;;;;;;1956113;73;21108;-76
2021/04/26 08:45:58;;;;;;;7.05;2.42;;;13.20;93.10;;;;;;1956159;73;21127;-76
2021/04/26 08:48:25;;;;;;;8.50;2.67;;;13.20;93.50;;;;;;1956157;73;21163;-76
2021/04/26 08:50:51;;;;;;;4.28;2.35;;;13.70;93.80;;;;;;1956093;73;21520;-77
2021/04/26 08:53:17;;;;;;;6.20;1.92;;;14.60;93.30;;;;;;1956293;73;21134;-77
2021/04/26 08:55:43;;;;;;;4.03;1.98;;;15.00;90.80;;;;;;1956104;73;21107;-76
2021/04/26 08:58:09;;;;;;;5.12;2.12;;;15.00;89.20;;;;;;1956027;73;21037;-77
2021/04/26 09:00:37;;;;;;;4.12;1.75;;;14.80;90.20;;;;;;1956633;73;21202;-77
2021/04/26 09:03:03;;;;;;;3.30;2.00;;;15.10;90.10;;;;;;1956273;73;21123;-77
2021/04/26 09:05:29;;;;;;;4.22;2.10;;;14.90;89.00;;;;;;1956166;73;21496;-76
2021/04/26 09:07:55;;;;;;;6.15;2.15;;;14.30;91.10;;;;;;1956146;73;21509;-77
2021/04/26 09:10:21;;;;;;;2.75;1.77;;;14.90;90.90;;;;;;1956079;73;21045;-76
2021/04/26 09:12:48;;;;;;;2.58;1.87;;;14.80;89.60;;;;;;1956291;73;21067;-77
2021/04/26 09:15:14;;;;;;;8.53;2.08;;;14.80;90.40;;;;;;1956216;73;21176;-77
2021/04/26 09:17:40;;;;;;;8.25;2.08;;;14.80;90.40;;;;;;1955677;73;21122;-75
2021/04/26 09:20:06;;;;;;;2.42;1.40;;;15.20;90.10;;;;;;1953354;73;21219;-77
2021/04/26 09:22:32;;;;;;;3.33;1.90;;;15.50;90.00;;;;;;1956538;73;21086;-77
2021/04/26 09:24:58;;;;;;;2.27;1.60;;;15.10;90.50;;;;;;1958338;73;21088;-80
2021/04/26 09:27:24;;;;;;;3.58;1.70;;;15.90;87.70;;;;;;1957319;73;21481;-80
2021/04/26 09:29:51;;;;;;;5.65;2.25;;;15.60;88.00;;;;;;1956336;73;21618;-79
2021/04/26 09:32:17;;;;;;;4.87;1.90;;;15.10;87.70;;;;;;1956279;73;21508;-80
2021/04/26 09:34:43;;;;;;;4.55;1.90;;;14.90;89.00;;;;;;1955002;73;21472;-79
2021/04/26 09:37:09;;;;;;;4.83;1.87;;;15.20;87.80;;;;;;1955913;73;21057;-77
2021/04/26 09:39:35;;;;;;;3.27;1.90;;;15.30;84.00;;;;;;1956468;73;21125;-77
2021/04/26 09:42:01;;;;;;;5.12;2.12;;;15.50;85.40;;;;;;1955177;73;21151;-81
2021/04/26 09:44:27;;;;;;;4.33;1.60;;;15.50;85.90;;;;;;1956118;73;21097;-80
2021/04/26 09:46:54;;;;;;;4.33;2.00;;;15.50;86.10;;;;;;1966772;72;21130;-81
2021/04/26 09:49:20;;;;;;;5.20;2.05;;;15.20;85.70;;;;;;1959681;72;21575;-80
2021/04/26 09:51:46;;;;;;;3.77;1.70;;;15.40;84.50;;;;;;1956088;73;21593;-80
2021/04/26 09:54:12;;;;;;;8.38;2.35;;;16.00;84.50;;;;;;1940518;72;21555;-80
2021/04/26 09:56:40;;;;;;;7.17;1.67;;;16.10;81.10;;;;;;1954494;73;21472;-81
2021/04/26 09:59:06;;;;;;;7.87;1.85;;;16.50;79.70;;;;;;1956082;73;21100;-80
2021/04/26 10:01:32;;;;;;;4.47;1.40;;;16.00;80.60;;;;;;1956230;73;21138;-81
2021/04/26 10:03:58;;;;;;;5.53;1.80;;;16.00;81.00;;;;;;1956054;73;21076;-80
2021/04/26 10:06:24;;;;;;;3.70;2.08;;;16.00;78.70;;;;;;1956267;73;21059;-79
2021/04/26 10:08:50;;;;;;;3.98;2.00;;;16.60;78.10;;;;;;1956041;73;21105;-80
2021/04/26 10:11:16;;;;;;;8.93;1.75;;;16.40;77.70;;;;;;1956266;73;21123;-80
2021/04/26 10:13:43;;;;;;;4.35;2.15;;;16.40;77.70;;;;;;1956213;73;21498;-80
2021/04/26 10:16:11;;;;;;;4.28;1.50;;;16.50;74.50;;;;;;1957830;73;21607;-80
2021/04/26 10:18:36;;;;;;;4.35;1.77;;;16.50;73.90;;;;;;1956898;73;21077;-78
2021/04/26 10:21:03;;;;;;;5.30;1.47;;;16.50;72.90;;;;;;1957338;73;21077;-80
2021/04/26 10:23:30;;;;;;;3.52;1.72;;;16.70;71.40;;;;;;1956037;73;21522;-79
2021/04/26 10:25:56;;;;;;;5.62;1.87;;;17.10;67.70;;;;;;1956076;73;21158;-78
2021/04/26 10:28:23;;;;;;;3.12;1.60;;;17.50;69.40;;;;;;1956148;73;21178;-78
2021/04/26 10:30:49;;;;;;;2.55;1.75;;;17.40;66.50;;;;;;1956005;73;21508;-77
2021/04/26 10:33:15;;;;;;;3.58;1.20;;;17.90;67.20;;;;;;1956249;73;21429;-78
2021/04/26 10:35:41;;;;;;;5.80;1.55;;;18.00;68.80;;;;;;1956141;73;21539;-77
2021/04/26 10:38:07;;;;;;;5.85;1.77;;;17.50;62.50;;;;;;1956211;73;21476;-78
2021/04/26 10:40:33;;;;;;;2.08;1.65;;;17.40;66.60;;;;;;1955951;73;21157;-78
2021/04/26 10:42:59;;;;;;;4.62;1.47;;;17.40;63.50;;;;;;1956203;73;21130;-77
2021/04/26 10:45:26;;;;;;;2.27;1.30;;;17.00;64.90;;;;;;1956010;73;21093;-77
2021/04/26 10:47:52;;;;;;;2.90;1.95;;;17.40;63.50;;;;;;1956193;73;21067;-77
2021/04/26 10:50:19;;;;;;;3.02;1.40;;;17.50;64.00;;;;;;1956005;73;21166;-76
2021/04/26 10:52:45;;;;;;;13.10;1.60;;;17.50;65.00;;;;;;1956103;73;21068;-77
2021/04/26 10:55:11;;;;;;;3.22;1.77;;;17.40;62.50;;;;;;1956233;73;21136;-76
2021/04/26 11:00:30;;;;;;;3.08;1.57;;;17.00;66.00;;;;;;1956105;73;21531;-77
2021/04/26 11:02:49;;;;;;;3.02;1.60;;;17.80;64.40;;;;;;1952647;73;21085;-77
2021/04/26 11:05:15;;;;;;;4.20;1.72;;;18.60;61.60;;;;;;1956019;73;21093;-77
2021/04/26 11:07:42;;;;;;;3.30;1.70;;;18.30;60.50;;;;;;1956090;73;21081;-77
2021/04/26 11:10:09;;;;;;;2.40;1.40;;;17.50;61.80;;;;;;1956119;73;21159;-76
2021/04/26 11:12:35;;;;;;;3.20;1.55;;;17.60;61.40;;;;;;1956098;73;21093;-77
2021/04/26 11:15:01;;;;;;;5.95;1.62;;;17.00;61.20;;;;;;1956211;73;21169;-75
2021/04/26 11:17:27;;;;;;;2.72;1.75;;;17.20;59.80;;;;;;1956111;73;21141;-76
2021/04/26 11:19:53;;;;;;;5.78;1.55;;;16.80;60.20;;;;;;1956082;73;21089;-76
2021/04/26 11:22:19;;;;;;;3.70;1.55;;;17.10;58.90;;;;;;1956198;73;21076;-76
2021/04/26 11:24:45;;;;;;;2.33;1.27;;;17.20;59.50;;;;;;1956359;73;21145;-74
2021/04/26 11:27:13;;;;;;;2.72;1.20;;;17.60;59.10;;;;;;1956255;73;21009;-75
2021/04/26 11:29:39;;;;;;;2.98;1.60;;;18.10;58.20;;;;;;1956235;73;21081;-76
2021/04/26 11:32:05;;;;;;;2.87;1.50;;;17.30;59.10;;;;;;1956373;73;21071;-76
2021/04/26 11:34:31;;;;;;;15.38;1.50;;;17.00;58.80;;;;;;1956397;73;21068;-75
2021/04/26 11:36:57;;;;;;;2.42;1.42;;;17.10;57.60;;;;;;1956340;73;21111;-78
2021/04/26 11:39:23;;;;;;;2.37;1.40;;;16.90;57.70;;;;;;1956359;73;21067;-83
2021/04/26 11:41:50;;;;;;;3.27;1.67;;;17.10;59.50;;;;;;1956534;73;21056;-82
2021/04/26 11:44:18;;;;;;;6.30;1.50;;;17.70;58.60;;;;;;1956712;73;21118;-81
2021/04/26 11:46:45;;;;;;;4.15;1.42;;;18.30;56.60;;;;;;1956322;73;21103;-81
2021/04/26 11:49:11;;;;;;;5.42;1.40;;;17.80;56.50;;;;;;1956385;73;21121;-81
2021/04/26 11:51:39;;;;;;;2.72;1.20;;;18.00;54.70;;;;;;1956340;73;21142;-80
2021/04/26 11:54:05;;;;;;;1.95;1.25;;;18.50;54.40;;;;;;1956457;73;21085;-80
2021/04/26 11:56:31;;;;;;;2.42;1.52;;;19.30;51.90;;;;;;1956730;73;21122;-80
2021/04/26 11:58:57;;;;;;;2.17;1.40;;;19.00;51.90;;;;;;1956545;73;21092;-80
2021/04/26 12:01:23;;;;;;;4.25;1.47;;;19.40;52.50;;;;;;1955998;73;21101;-80
2021/04/26 12:03:49;;;;;;;1.80;1.45;;;19.70;51.00;;;;;;1956803;73;21057;-80
2021/04/26 12:06:15;;;;;;;1.55;1.10;;;19.70;49.60;;;;;;1957014;73;21038;-83
2021/04/26 12:08:41;;;;;;;2.45;1.42;;;19.70;48.20;;;;;;1956707;73;21085;-82
2021/04/26 12:11:08;;;;;;;5.53;1.50;;;19.90;48.30;;;;;;1956367;73;21068;-82
2021/04/26 12:13:34;;;;;;;2.72;1.30;;;19.70;48.00;;;;;;1955670;73;21139;-82
2021/04/26 12:16:00;;;;;;;4.53;1.52;;;20.30;48.10;;;;;;1956269;73;21032;-82
2021/04/26 12:18:26;;;;;;;2.10;1.35;;;19.20;49.10;;;;;;1956202;73;21104;-82
2021/04/26 12:20:53;;;;;;;4.92;1.60;;;19.30;49.60;;;;;;1956309;73;21080;-83
2021/04/26 12:23:20;;;;;;;7.62;1.35;;;19.90;47.70;;;;;;1956289;73;21069;-82
2021/04/26 12:25:48;;;;;;;2.27;1.12;;;20.50;48.30;;;;;;1956195;73;21093;-80
2021/04/26 12:28:14;;;;;;;7.97;1.67;;;21.30;48.50;;;;;;1954172;73;21142;-83
2021/04/26 12:30:40;;;;;;;3.70;1.20;;;21.50;45.40;;;;;;1956372;73;21005;-80
2021/04/26 12:33:06;;;;;;;7.15;1.42;;;21.30;43.80;;;;;;1956219;73;21092;-82
2021/04/26 12:35:32;;;;;;;2.50;1.50;;;21.20;44.00;;;;;;1956257;73;21085;-81
2021/04/26 12:37:58;;;;;;;4.17;1.40;;;21.60;43.10;;;;;;1956315;73;21064;-80
2021/04/26 12:40:25;;;;;;;4.20;1.20;;;21.50;44.00;;;;;;1956209;73;21111;-79
2021/04/26 12:42:51;;;;;;;1.40;1.15;;;21.00;43.90;;;;;;1956225;73;21080;-76
2021/04/26 12:45:21;;;;;;;3.05;0.95;;;20.70;43.20;;;;;;1956299;73;21064;-78
2021/04/26 12:47:44;;;;;;;2.02;1.25;;;21.40;42.60;;;;;;1955831;72;21599;-79
2021/04/26 12:50:11;;;;;;;1.75;1.20;;;21.40;42.90;;;;;;1956214;73;21436;-78